sensor_id;sensor_type;location;lat;lon;timestamp;pressure;altitude;pressure_sealevel;temperature;humidity
40502;BME280;29631;49.168;9.848;2023-05-01T00:00:56;96661.47;;;16.18;79.36
40502;BME280;29631;49.168;9.848;2023-05-01T00:03:22;96635.06;;;16.00;79.68
40502;BME280;29631;49.168;9.848;2023-05-01T00:05:48;96653.03;;;16.10;79.92
40502;BME280;29631;49.168;9.848;2023-05-01T00:08:14;96649.84;;;16.08;79.84
40502;BME280;29631;49.168;9.848;2023-05-01T00:10:40;96651.59;;;16.02;80.09
40502;BME280;29631;49.168;9.848;2023-05-01T00:13:06;96660.13;;;16.04;80.34
40502;BME280;29631;49.168;9.848;2023-05-01T00:15:32;96637.53;;;15.91;79.55
40502;BME280;29631;49.168;9.848;2023-05-01T00:17:58;96617.69;;;15.82;80.04
40502;BME280;29631;49.168;9.848;2023-05-01T00:20:28;96643.19;;;15.94;80.29
40502;BME280;29631;49.168;9.848;2023-05-01T00:22:54;96641.09;;;15.96;80.21
40502;BME280;29631;49.168;9.848;2023-05-01T00:25:20;96635.47;;;15.93;79.59
40502;BME280;29631;49.168;9.848;2023-05-01T00:27:46;96581.72;;;15.63;79.68
40502;BME280;29631;49.168;9.848;2023-05-01T00:30:13;96632.31;;;15.96;79.73
40502;BME280;29631;49.168;9.848;2023-05-01T00:32:38;96632.38;;;16.00;79.33
40502;BME280;29631;49.168;9.848;2023-05-01T00:35:04;96627.06;;;16.00;79.43
40502;BME280;29631;49.168;9.848;2023-05-01T00:37:30;96597.56;;;15.86;79.23
40502;BME280;29631;49.168;9.848;2023-05-01T00:39:56;96625.00;;;16.02;79.60
40502;BME280;29631;49.168;9.848;2023-05-01T00:42:22;96580.47;;;15.82;79.26
40502;BME280;29631;49.168;9.848;2023-05-01T00:44:48;96594.50;;;15.94;79.61
40502;BME280;29631;49.168;9.848;2023-05-01T00:47:13;96602.09;;;16.01;79.73
40502;BME280;29631;49.168;9.848;2023-05-01T00:49:41;96606.44;;;16.07;79.84
40502;BME280;29631;49.168;9.848;2023-05-01T00:52:08;96604.28;;;16.04;79.69
40502;BME280;29631;49.168;9.848;2023-05-01T00:54:38;96581.78;;;15.96;79.45
40502;BME280;29631;49.168;9.848;2023-05-01T00:57:05;96586.06;;;15.97;79.50
40502;BME280;29631;49.168;9.848;2023-05-01T00:59:32;96567.28;;;15.87;78.61
40502;BME280;29631;49.168;9.848;2023-05-01T01:01:58;96593.88;;;16.03;78.86
40502;BME280;29631;49.168;9.848;2023-05-01T01:04:24;96595.16;;;16.00;79.69
40502;BME280;29631;49.168;9.848;2023-05-01T01:07:06;96582.94;;;15.99;79.34
40502;BME280;29631;49.168;9.848;2023-05-01T01:10:14;96590.50;;;16.07;78.85
40502;BME280;29631;49.168;9.848;2023-05-01T01:12:52;96574.38;;;15.98;79.57
40502;BME280;29631;49.168;9.848;2023-05-01T01:21:29;96574.38;;;15.98;79.69
40502;BME280;29631;49.168;9.848;2023-05-01T01:27:13;96576.97;;;15.93;79.72
40502;BME280;29631;49.168;9.848;2023-05-01T01:36:05;96567.00;;;15.72;79.73
40502;BME280;29631;49.168;9.848;2023-05-01T01:38:42;96576.34;;;15.74;79.85
40502;BME280;29631;49.168;9.848;2023-05-01T01:41:35;96576.25;;;15.69;80.31
40502;BME280;29631;49.168;9.848;2023-05-01T01:46:38;96569.47;;;15.62;79.54
40502;BME280;29631;49.168;9.848;2023-05-01T01:49:10;96557.38;;;15.54;80.07
40502;BME280;29631;49.168;9.848;2023-05-01T01:51:39;96570.28;;;15.62;80.03
40502;BME280;29631;49.168;9.848;2023-05-01T01:54:06;96575.22;;;15.70;79.69
40502;BME280;29631;49.168;9.848;2023-05-01T01:56:35;96576.97;;;15.65;79.48
40502;BME280;29631;49.168;9.848;2023-05-01T01:59:04;96554.72;;;15.54;79.54
40502;BME280;29631;49.168;9.848;2023-05-01T02:01:34;96568.41;;;15.63;79.78
40502;BME280;29631;49.168;9.848;2023-05-01T02:04:01;96545.94;;;15.54;79.67
40502;BME280;29631;49.168;9.848;2023-05-01T02:06:28;96561.47;;;15.62;80.05
40502;BME280;29631;49.168;9.848;2023-05-01T02:08:56;96563.69;;;15.65;79.38
40502;BME280;29631;49.168;9.848;2023-05-01T02:11:24;96517.22;;;15.39;79.35
40502;BME280;29631;49.168;9.848;2023-05-01T02:13:50;96544.50;;;15.63;79.77
40502;BME280;29631;49.168;9.848;2023-05-01T02:16:19;96554.59;;;15.61;79.42
40502;BME280;29631;49.168;9.848;2023-05-01T02:18:47;96539.34;;;15.56;79.21
40502;BME280;29631;49.168;9.848;2023-05-01T02:21:15;96493.97;;;15.19;79.89
40502;BME280;29631;49.168;9.848;2023-05-01T02:23:41;96532.41;;;15.55;79.34
40502;BME280;29631;49.168;9.848;2023-05-01T02:26:14;96523.06;;;15.53;79.56
40502;BME280;29631;49.168;9.848;2023-05-01T02:28:41;96536.44;;;15.58;79.69
40502;BME280;29631;49.168;9.848;2023-05-01T02:31:08;96539.19;;;15.63;79.78
40502;BME280;29631;49.168;9.848;2023-05-01T02:33:34;96534.38;;;15.60;79.61
40502;BME280;29631;49.168;9.848;2023-05-01T02:36:00;96550.47;;;15.70;80.03
40502;BME280;29631;49.168;9.848;2023-05-01T02:38:26;96535.41;;;15.59;79.85
40502;BME280;29631;49.168;9.848;2023-05-01T02:40:56;96540.72;;;15.59;78.96
40502;BME280;29631;49.168;9.848;2023-05-01T02:43:24;96532.25;;;15.62;79.07
40502;BME280;29631;49.168;9.848;2023-05-01T02:45:53;96509.69;;;15.48;79.61
40502;BME280;29631;49.168;9.848;2023-05-01T02:48:25;96539.19;;;15.63;79.14
40502;BME280;29631;49.168;9.848;2023-05-01T02:50:53;96513.25;;;15.53;79.47
40502;BME280;29631;49.168;9.848;2023-05-01T02:53:21;96526.59;;;15.58;79.38
40502;BME280;29631;49.168;9.848;2023-05-01T02:55:48;96505.19;;;15.48;79.56
40502;BME280;29631;49.168;9.848;2023-05-01T02:58:18;96521.69;;;15.50;79.46
40502;BME280;29631;49.168;9.848;2023-05-01T03:00:44;96508.22;;;15.40;79.28
40502;BME280;29631;49.168;9.848;2023-05-01T03:03:11;96528.72;;;15.56;79.69
40502;BME280;29631;49.168;9.848;2023-05-01T03:05:38;96520.97;;;15.55;79.63
40502;BME280;29631;49.168;9.848;2023-05-01T03:08:05;96508.63;;;15.49;80.05
40502;BME280;29631;49.168;9.848;2023-05-01T03:10:31;96494.84;;;15.35;79.79
40502;BME280;29631;49.168;9.848;2023-05-01T03:12:57;96505.97;;;15.49;78.89
40502;BME280;29631;49.168;9.848;2023-05-01T03:15:23;96515.00;;;15.48;79.57
40502;BME280;29631;49.168;9.848;2023-05-01T03:17:49;96521.91;;;15.49;80.08
40502;BME280;29631;49.168;9.848;2023-05-01T03:20:15;96491.28;;;15.30;80.14
40502;BME280;29631;49.168;9.848;2023-05-01T03:22:40;96486.78;;;15.30;79.82
40502;BME280;29631;49.168;9.848;2023-05-01T03:25:06;96510.16;;;15.45;80.20
40502;BME280;29631;49.168;9.848;2023-05-01T03:27:33;96512.03;;;15.44;79.69
40502;BME280;29631;49.168;9.848;2023-05-01T03:29:59;96507.88;;;15.37;79.45
40502;BME280;29631;49.168;9.848;2023-05-01T03:32:25;96493.56;;;15.38;79.67
40502;BME280;29631;49.168;9.848;2023-05-01T03:34:53;96505.81;;;15.39;79.63
40502;BME280;29631;49.168;9.848;2023-05-01T03:37:19;96493.47;;;15.33;79.36
40502;BME280;29631;49.168;9.848;2023-05-01T03:39:45;96480.00;;;15.23;79.46
40502;BME280;29631;49.168;9.848;2023-05-01T03:42:11;96499.38;;;15.35;80.00
40502;BME280;29631;49.168;9.848;2023-05-01T03:44:36;96463.94;;;15.18;79.82
40502;BME280;29631;49.168;9.848;2023-05-01T03:47:02;96495.19;;;15.39;79.37
40502;BME280;29631;49.168;9.848;2023-05-01T03:49:28;96440.31;;;15.05;79.18
40502;BME280;29631;49.168;9.848;2023-05-01T03:51:53;96498.41;;;15.41;79.27
40502;BME280;29631;49.168;9.848;2023-05-01T03:54:19;96492.03;;;15.42;79.00
40502;BME280;29631;49.168;9.848;2023-05-01T03:56:45;96481.31;;;15.37;79.41
40502;BME280;29631;49.168;9.848;2023-05-01T03:59:11;96489.38;;;15.42;79.71
40502;BME280;29631;49.168;9.848;2023-05-01T04:01:36;96499.63;;;15.50;79.58
40502;BME280;29631;49.168;9.848;2023-05-01T04:04:02;96503.91;;;15.51;79.55
40502;BME280;29631;49.168;9.848;2023-05-01T04:06:28;96427.13;;;15.10;79.73
40502;BME280;29631;49.168;9.848;2023-05-01T04:08:54;96417.47;;;15.04;79.23
40502;BME280;29631;49.168;9.848;2023-05-01T04:11:20;96483.59;;;15.45;79.54
40502;BME280;29631;49.168;9.848;2023-05-01T04:13:45;96430.94;;;15.14;80.11
40502;BME280;29631;49.168;9.848;2023-05-01T04:16:11;96472.38;;;15.43;80.05
40502;BME280;29631;49.168;9.848;2023-05-01T04:18:38;96475.63;;;15.45;79.48
40502;BME280;29631;49.168;9.848;2023-05-01T04:21:03;96449.28;;;15.27;79.77
40502;BME280;29631;49.168;9.848;2023-05-01T04:23:29;96482.31;;;15.47;80.20
40502;BME280;29631;49.168;9.848;2023-05-01T04:25:55;96472.50;;;15.48;79.16
40502;BME280;29631;49.168;9.848;2023-05-01T04:28:21;96475.16;;;15.48;79.84
40502;BME280;29631;49.168;9.848;2023-05-01T04:30:46;96459.69;;;15.45;79.45
40502;BME280;29631;49.168;9.848;2023-05-01T04:33:12;96449.53;;;15.42;79.40
40502;BME280;29631;49.168;9.848;2023-05-01T04:35:39;96450.00;;;15.39;79.37
40502;BME280;29631;49.168;9.848;2023-05-01T04:38:06;96461.88;;;15.48;80.06
40502;BME280;29631;49.168;9.848;2023-05-01T04:40:32;96474.28;;;15.59;79.65
40502;BME280;29631;49.168;9.848;2023-05-01T04:42:58;96475.31;;;15.58;79.33
40502;BME280;29631;49.168;9.848;2023-05-01T04:45:25;96477.81;;;15.64;79.49
40502;BME280;29631;49.168;9.848;2023-05-01T04:47:51;96481.53;;;15.63;79.37
40502;BME280;29631;49.168;9.848;2023-05-01T04:50:17;96472.50;;;15.64;79.36
40502;BME280;29631;49.168;9.848;2023-05-01T04:52:42;96452.38;;;15.52;78.88
40502;BME280;29631;49.168;9.848;2023-05-01T04:55:08;96466.06;;;15.60;79.07
40502;BME280;29631;49.168;9.848;2023-05-01T04:57:35;96470.34;;;15.61;78.92
40502;BME280;29631;49.168;9.848;2023-05-01T05:00:01;96475.41;;;15.63;79.39
40502;BME280;29631;49.168;9.848;2023-05-01T05:02:28;96475.41;;;15.63;79.23
40502;BME280;29631;49.168;9.848;2023-05-01T05:04:53;96483.94;;;15.65;79.85
40502;BME280;29631;49.168;9.848;2023-05-01T05:07:21;96489.91;;;15.72;79.62
40502;BME280;29631;49.168;9.848;2023-05-01T05:09:47;96471.13;;;15.62;79.29
40502;BME280;29631;49.168;9.848;2023-05-01T05:12:13;96479.75;;;15.69;79.51
40502;BME280;29631;49.168;9.848;2023-05-01T05:14:40;96466.88;;;15.61;79.87
40502;BME280;29631;49.168;9.848;2023-05-01T05:17:06;96459.94;;;15.60;79.84
40502;BME280;29631;49.168;9.848;2023-05-01T05:19:32;96488.97;;;15.78;80.08
40502;BME280;29631;49.168;9.848;2023-05-01T05:21:57;96474.28;;;15.75;79.95
40502;BME280;29631;49.168;9.848;2023-05-01T05:24:23;96480.47;;;15.81;80.05
40502;BME280;29631;49.168;9.848;2023-05-01T05:26:49;96480.91;;;15.73;80.30
40502;BME280;29631;49.168;9.848;2023-05-01T05:29:15;96483.97;;;15.81;80.06
40502;BME280;29631;49.168;9.848;2023-05-01T05:31:41;96477.41;;;15.72;80.25
40502;BME280;29631;49.168;9.848;2023-05-01T05:34:06;96480.41;;;15.76;80.66
40502;BME280;29631;49.168;9.848;2023-05-01T05:36:32;96423.53;;;15.44;80.17
40502;BME280;29631;49.168;9.848;2023-05-01T05:38:59;96473.56;;;15.80;80.96
40502;BME280;29631;49.168;9.848;2023-05-01T05:41:25;96470.91;;;15.80;79.63
40502;BME280;29631;49.168;9.848;2023-05-01T05:43:51;96458.59;;;15.74;80.07
40502;BME280;29631;49.168;9.848;2023-05-01T05:46:18;96474.63;;;15.79;80.09
40502;BME280;29631;49.168;9.848;2023-05-01T05:48:44;96418.28;;;15.49;80.72
40502;BME280;29631;49.168;9.848;2023-05-01T05:51:10;96480.59;;;15.86;80.24
40502;BME280;29631;49.168;9.848;2023-05-01T05:53:36;96490.72;;;15.89;80.65
40502;BME280;29631;49.168;9.848;2023-05-01T05:56:02;96452.06;;;15.81;80.14
40502;BME280;29631;49.168;9.848;2023-05-01T05:58:28;96471.63;;;15.92;80.57
40502;BME280;29631;49.168;9.848;2023-05-01T06:00:53;96475.09;;;15.92;80.53
40502;BME280;29631;49.168;9.848;2023-05-01T06:03:20;96456.56;;;15.81;80.13
40502;BME280;29631;49.168;9.848;2023-05-01T06:05:46;96462.63;;;15.93;80.61
40502;BME280;29631;49.168;9.848;2023-05-01T06:08:13;96457.53;;;15.91;80.15
40502;BME280;29631;49.168;9.848;2023-05-01T06:10:42;96434.81;;;15.84;80.25
40502;BME280;29631;49.168;9.848;2023-05-01T06:13:08;96462.69;;;15.98;81.01
40502;BME280;29631;49.168;9.848;2023-05-01T06:15:38;96460.59;;;15.99;80.80
40502;BME280;29631;49.168;9.848;2023-05-01T06:18:05;96471.84;;;16.06;80.80
40502;BME280;29631;49.168;9.848;2023-05-01T06:20:31;96464.44;;;16.08;80.68
40502;BME280;29631;49.168;9.848;2023-05-01T06:22:57;96463.97;;;16.11;80.38
40502;BME280;29631;49.168;9.848;2023-05-01T06:25:23;96469.13;;;16.18;80.36
40502;BME280;29631;49.168;9.848;2023-05-01T06:27:50;96431.63;;;16.03;80.94
40502;BME280;29631;49.168;9.848;2023-05-01T06:30:15;96456.06;;;16.16;81.11
40502;BME280;29631;49.168;9.848;2023-05-01T06:32:47;96396.81;;;15.83;80.60
40502;BME280;29631;49.168;9.848;2023-05-01T06:35:13;96441.09;;;16.10;80.37
40502;BME280;29631;49.168;9.848;2023-05-01T06:37:39;96454.44;;;16.15;80.71
40502;BME280;29631;49.168;9.848;2023-05-01T06:40:09;96460.09;;;16.19;80.95
40502;BME280;29631;49.168;9.848;2023-05-01T06:42:37;96465.72;;;16.22;80.50
40502;BME280;29631;49.168;9.848;2023-05-01T06:45:04;96433.81;;;16.06;81.30
40502;BME280;29631;49.168;9.848;2023-05-01T06:47:30;96414.97;;;15.91;80.99
40502;BME280;29631;49.168;9.848;2023-05-01T06:49:56;96439.28;;;16.16;80.80
40502;BME280;29631;49.168;9.848;2023-05-01T06:52:21;96465.56;;;16.29;80.61
40502;BME280;29631;49.168;9.848;2023-05-01T06:54:47;96462.56;;;16.25;80.90
40502;BME280;29631;49.168;9.848;2023-05-01T06:57:13;96462.13;;;16.28;80.83
40502;BME280;29631;49.168;9.848;2023-05-01T06:59:38;96454.56;;;16.25;81.48
40502;BME280;29631;49.168;9.848;2023-05-01T07:02:04;96457.81;;;16.27;80.77
40502;BME280;29631;49.168;9.848;2023-05-01T07:04:31;96468.66;;;16.37;80.74
40502;BME280;29631;49.168;9.848;2023-05-01T07:06:56;96436.16;;;16.19;81.32
40502;BME280;29631;49.168;9.848;2023-05-01T07:09:22;96433.00;;;16.22;80.96
40502;BME280;29631;49.168;9.848;2023-05-01T07:11:48;96470.31;;;16.43;81.13
40502;BME280;29631;49.168;9.848;2023-05-01T07:14:14;96461.19;;;16.39;81.01
40502;BME280;29631;49.168;9.848;2023-05-01T07:16:39;96459.09;;;16.41;81.08
40502;BME280;29631;49.168;9.848;2023-05-01T07:19:05;96457.75;;;16.39;81.40
40502;BME280;29631;49.168;9.848;2023-05-01T07:21:31;96450.56;;;16.39;80.95
40502;BME280;29631;49.168;9.848;2023-05-01T07:23:57;96463.44;;;16.47;81.15
40502;BME280;29631;49.168;9.848;2023-05-01T07:26:25;96459.22;;;16.51;81.34
40502;BME280;29631;49.168;9.848;2023-05-01T07:28:51;96473.72;;;16.60;81.14
40502;BME280;29631;49.168;9.848;2023-05-01T07:31:17;96468.91;;;16.57;81.53
40502;BME280;29631;49.168;9.848;2023-05-01T07:33:44;96463.59;;;16.57;81.73
40502;BME280;29631;49.168;9.848;2023-05-01T07:36:09;96472.94;;;16.60;81.28
40502;BME280;29631;49.168;9.848;2023-05-01T07:38:35;96475.91;;;16.63;81.47
40502;BME280;29631;49.168;9.848;2023-05-01T07:41:01;96471.66;;;16.62;81.44
40502;BME280;29631;49.168;9.848;2023-05-01T07:43:27;96409.47;;;16.30;81.72
40502;BME280;29631;49.168;9.848;2023-05-01T07:45:55;96451.34;;;16.56;81.31
40502;BME280;29631;49.168;9.848;2023-05-01T07:48:26;96482.91;;;16.69;80.95
40502;BME280;29631;49.168;9.848;2023-05-01T07:50:53;96467.00;;;16.53;81.07
40502;BME280;29631;49.168;9.848;2023-05-01T07:53:19;96476.81;;;16.52;80.90
40502;BME280;29631;49.168;9.848;2023-05-01T07:55:45;96493.41;;;16.59;80.92
40502;BME280;29631;49.168;9.848;2023-05-01T07:58:11;96464.75;;;16.45;80.68
40502;BME280;29631;49.168;9.848;2023-05-01T08:00:36;96471.44;;;16.47;80.58
40502;BME280;29631;49.168;9.848;2023-05-01T08:03:03;96494.25;;;16.60;80.71
40502;BME280;29631;49.168;9.848;2023-05-01T08:05:28;96499.78;;;16.58;80.65
40502;BME280;29631;49.168;9.848;2023-05-01T08:07:56;96480.41;;;16.41;80.78
40502;BME280;29631;49.168;9.848;2023-05-01T08:10:22;96483.47;;;16.33;81.01
40502;BME280;29631;49.168;9.848;2023-05-01T08:12:47;96439.34;;;15.99;80.08
40502;BME280;29631;49.168;9.848;2023-05-01T08:15:13;96504.91;;;16.43;80.05
40502;BME280;29631;49.168;9.848;2023-05-01T08:17:39;96496.56;;;16.35;80.46
40502;BME280;29631;49.168;9.848;2023-05-01T08:20:05;96511.75;;;16.39;80.32
40502;BME280;29631;49.168;9.848;2023-05-01T08:22:31;96500.56;;;16.37;80.39
40502;BME280;29631;49.168;9.848;2023-05-01T08:24:57;96494.84;;;16.29;80.01
40502;BME280;29631;49.168;9.848;2023-05-01T08:27:23;96488.13;;;16.26;80.76
40502;BME280;29631;49.168;9.848;2023-05-01T08:29:48;96509.59;;;16.36;80.70
40502;BME280;29631;49.168;9.848;2023-05-01T08:32:15;96468.72;;;16.09;80.50
40502;BME280;29631;49.168;9.848;2023-05-01T08:34:41;96482.16;;;16.19;80.62
40502;BME280;29631;49.168;9.848;2023-05-01T08:37:07;96467.81;;;16.04;80.54
40502;BME280;29631;49.168;9.848;2023-05-01T08:39:32;96499.25;;;16.23;80.24
40502;BME280;29631;49.168;9.848;2023-05-01T08:41:58;96471.38;;;16.09;80.80
40502;BME280;29631;49.168;9.848;2023-05-01T08:44:27;96503.91;;;16.28;81.16
40502;BME280;29631;49.168;9.848;2023-05-01T08:49:35;96496.22;;;16.31;81.08
40502;BME280;29631;49.168;9.848;2023-05-01T08:52:02;96476.03;;;16.19;81.82
40502;BME280;29631;49.168;9.848;2023-05-01T08:54:30;96509.75;;;16.30;80.91
40502;BME280;29631;49.168;9.848;2023-05-01T08:57:00;96470.75;;;16.02;80.95
40502;BME280;29631;49.168;9.848;2023-05-01T08:59:33;96468.16;;;16.07;81.47
40502;BME280;29631;49.168;9.848;2023-05-01T09:02:06;96493.31;;;16.16;81.19
40502;BME280;29631;49.168;9.848;2023-05-01T09:04:40;96482.66;;;16.16;81.43
40502;BME280;29631;49.168;9.848;2023-05-01T09:07:07;96468.16;;;16.07;81.37
40502;BME280;29631;49.168;9.848;2023-05-01T09:09:33;96489.09;;;16.20;81.88
40502;BME280;29631;49.168;9.848;2023-05-01T09:12:26;96496.22;;;16.31;81.69
40502;BME280;29631;49.168;9.848;2023-05-01T09:14:53;96499.44;;;16.33;81.88
40502;BME280;29631;49.168;9.848;2023-05-01T09:17:21;96491.38;;;16.28;82.17
40502;BME280;29631;49.168;9.848;2023-05-01T09:19:48;96476.19;;;16.12;82.32
40502;BME280;29631;49.168;9.848;2023-05-01T09:22:16;96500.38;;;16.27;82.05
40502;BME280;29631;49.168;9.848;2023-05-01T09:24:43;96491.81;;;16.25;82.69
40502;BME280;29631;49.168;9.848;2023-05-01T09:27:11;96492.19;;;16.29;82.01
40502;BME280;29631;49.168;9.848;2023-05-01T09:29:41;96500.00;;;16.35;81.73
40502;BME280;29631;49.168;9.848;2023-05-01T09:32:25;96509.75;;;16.30;82.89
40502;BME280;29631;49.168;9.848;2023-05-01T09:34:54;96480.31;;;16.20;82.33
40502;BME280;29631;49.168;9.848;2023-05-01T09:37:39;96493.00;;;16.29;83.46
40502;BME280;29631;49.168;9.848;2023-05-01T09:40:09;96504.81;;;16.38;82.28
40502;BME280;29631;49.168;9.848;2023-05-01T09:42:38;96473.63;;;16.17;82.96
40502;BME280;29631;49.168;9.848;2023-05-01T09:45:14;96493.00;;;16.29;82.67
40502;BME280;29631;49.168;9.848;2023-05-01T09:47:41;96477.47;;;16.26;82.74
40502;BME280;29631;49.168;9.848;2023-05-01T09:50:09;96489.94;;;16.37;83.25
40502;BME280;29631;49.168;9.848;2023-05-01T09:52:35;96471.97;;;16.28;82.95
40502;BME280;29631;49.168;9.848;2023-05-01T09:55:17;96491.50;;;16.38;83.46
40502;BME280;29631;49.168;9.848;2023-05-01T09:57:44;96464.78;;;16.28;83.36
40502;BME280;29631;49.168;9.848;2023-05-01T10:00:13;96491.84;;;16.42;83.80
40502;BME280;29631;49.168;9.848;2023-05-01T10:02:42;96483.63;;;16.43;83.68
40502;BME280;29631;49.168;9.848;2023-05-01T10:05:09;96478.22;;;16.38;83.20
40502;BME280;29631;49.168;9.848;2023-05-01T10:07:36;96473.47;;;16.40;83.64
40502;BME280;29631;49.168;9.848;2023-05-01T10:10:19;96482.66;;;16.49;83.90
40502;BME280;29631;49.168;9.848;2023-05-01T10:12:46;96489.91;;;16.54;83.95
40502;BME280;29631;49.168;9.848;2023-05-01T10:15:13;96487.47;;;16.52;84.18
40502;BME280;29631;49.168;9.848;2023-05-01T10:17:41;96492.63;;;16.59;83.94
40502;BME280;29631;49.168;9.848;2023-05-01T10:20:12;96491.00;;;16.58;84.20
40502;BME280;29631;49.168;9.848;2023-05-01T10:22:39;96476.91;;;16.57;83.41
40502;BME280;29631;49.168;9.848;2023-05-01T10:25:09;96479.06;;;16.60;84.61
40502;BME280;29631;49.168;9.848;2023-05-01T10:27:39;96486.00;;;16.61;84.09
40502;BME280;29631;49.168;9.848;2023-05-01T10:30:06;96482.75;;;16.59;84.13
40502;BME280;29631;49.168;9.848;2023-05-01T10:32:35;96483.41;;;16.66;84.17
40502;BME280;29631;49.168;9.848;2023-05-01T10:35:08;96488.41;;;16.63;84.06
40502;BME280;29631;49.168;9.848;2023-05-01T10:37:58;96504.03;;;16.75;84.97
40502;BME280;29631;49.168;9.848;2023-05-01T10:40:48;96506.44;;;16.77;84.65
40502;BME280;29631;49.168;9.848;2023-05-01T10:43:20;96500.00;;;16.73;84.27
40502;BME280;29631;49.168;9.848;2023-05-01T10:45:51;96508.94;;;16.83;84.21
40502;BME280;29631;49.168;9.848;2023-05-01T10:53:46;96506.88;;;16.90;84.38
40502;BME280;29631;49.168;9.848;2023-05-01T10:58:58;96508.81;;;16.95;84.17
40502;BME280;29631;49.168;9.848;2023-05-01T11:01:33;96493.81;;;16.89;84.04
40502;BME280;29631;49.168;9.848;2023-05-01T11:09:50;96455.31;;;16.75;84.17
40502;BME280;29631;49.168;9.848;2023-05-01T11:15:09;96483.59;;;17.02;84.06
40502;BME280;29631;49.168;9.848;2023-05-01T11:20:08;96439.94;;;16.82;84.38
40502;BME280;29631;49.168;9.848;2023-05-01T11:22:37;96485.94;;;17.20;83.73
40502;BME280;29631;49.168;9.848;2023-05-01T11:25:18;96472.28;;;17.17;84.63
40502;BME280;29631;49.168;9.848;2023-05-01T11:27:53;96467.84;;;17.22;84.40
40502;BME280;29631;49.168;9.848;2023-05-01T11:30:19;96471.72;;;17.31;84.37
40502;BME280;29631;49.168;9.848;2023-05-01T11:32:47;96486.47;;;17.44;84.53
40502;BME280;29631;49.168;9.848;2023-05-01T11:35:24;96461.41;;;17.40;84.02
40502;BME280;29631;49.168;9.848;2023-05-01T11:37:53;96468.41;;;17.50;83.84
40502;BME280;29631;49.168;9.848;2023-05-01T11:40:31;96473.88;;;17.60;84.24
40502;BME280;29631;49.168;9.848;2023-05-01T11:43:05;96469.59;;;17.59;83.82
40502;BME280;29631;49.168;9.848;2023-05-01T11:45:33;96472.84;;;17.66;84.00
40502;BME280;29631;49.168;9.848;2023-05-01T11:47:59;96462.69;;;17.63;83.61
40502;BME280;29631;49.168;9.848;2023-05-01T11:50:36;96456.94;;;17.76;84.00
40502;BME280;29631;49.168;9.848;2023-05-01T11:53:04;96453.22;;;17.77;83.46
40502;BME280;29631;49.168;9.848;2023-05-01T11:55:36;96429.75;;;17.79;83.74
40502;BME280;29631;49.168;9.848;2023-05-01T11:58:03;96463.81;;;18.04;83.89
40502;BME280;29631;49.168;9.848;2023-05-01T12:00:40;96430.97;;;17.98;83.35
40502;BME280;29631;49.168;9.848;2023-05-01T12:03:12;96452.97;;;18.15;83.24
40502;BME280;29631;49.168;9.848;2023-05-01T12:05:48;96433.13;;;18.06;83.46
40502;BME280;29631;49.168;9.848;2023-05-01T12:08:20;96450.84;;;18.17;83.14
40502;BME280;29631;49.168;9.848;2023-05-01T12:10:50;96452.03;;;18.31;83.44
40502;BME280;29631;49.168;9.848;2023-05-01T12:13:17;96462.78;;;18.41;83.17
40502;BME280;29631;49.168;9.848;2023-05-01T12:15:46;96441.41;;;18.41;83.39
40502;BME280;29631;49.168;9.848;2023-05-01T12:18:14;96455.38;;;18.53;83.41
40502;BME280;29631;49.168;9.848;2023-05-01T12:20:46;96443.59;;;18.49;83.10
40502;BME280;29631;49.168;9.848;2023-05-01T12:23:13;96458.63;;;18.65;82.74
40502;BME280;29631;49.168;9.848;2023-05-01T12:25:44;96449.28;;;18.62;83.29
40502;BME280;29631;49.168;9.848;2023-05-01T12:28:18;96454.38;;;18.69;82.93
40502;BME280;29631;49.168;9.848;2023-05-01T12:30:46;96452.25;;;18.71;82.71
40502;BME280;29631;49.168;9.848;2023-05-01T12:33:20;96455.25;;;18.79;83.32
40502;BME280;29631;49.168;9.848;2023-05-01T12:35:48;96464.09;;;18.90;82.80
40502;BME280;29631;49.168;9.848;2023-05-01T12:38:21;96454.72;;;18.87;82.65
40502;BME280;29631;49.168;9.848;2023-05-01T12:40:54;96461.19;;;19.01;82.49
40502;BME280;29631;49.168;9.848;2023-05-01T12:43:29;96457.19;;;19.03;83.24
40502;BME280;29631;49.168;9.848;2023-05-01T12:45:56;96469.56;;;19.14;83.26
40502;BME280;29631;49.168;9.848;2023-05-01T12:48:23;96436.41;;;19.10;82.62
40502;BME280;29631;49.168;9.848;2023-05-01T12:50:49;96422.53;;;19.08;82.68
40502;BME280;29631;49.168;9.848;2023-05-01T12:53:24;96460.53;;;19.35;82.67
40502;BME280;29631;49.168;9.848;2023-05-01T12:55:53;96431.94;;;19.31;82.53
40502;BME280;29631;49.168;9.848;2023-05-01T12:58:19;96453.59;;;19.44;82.28
40502;BME280;29631;49.168;9.848;2023-05-01T13:00:50;96453.09;;;19.52;82.23
40502;BME280;29631;49.168;9.848;2023-05-01T13:03:29;96446.13;;;19.56;82.79
40502;BME280;29631;49.168;9.848;2023-05-01T13:05:59;96455.25;;;19.70;82.38
40502;BME280;29631;49.168;9.848;2023-05-01T13:08:35;96428.22;;;19.62;82.81
40502;BME280;29631;49.168;9.848;2023-05-01T13:11:11;96440.81;;;19.76;82.33
40502;BME280;29631;49.168;9.848;2023-05-01T13:13:38;96436.00;;;19.83;82.35
40502;BME280;29631;49.168;9.848;2023-05-01T13:16:11;96445.63;;;19.89;81.69
40502;BME280;29631;49.168;9.848;2023-05-01T13:18:49;96444.56;;;20.00;81.58
40502;BME280;29631;49.168;9.848;2023-05-01T13:21:20;96437.38;;;20.00;82.25
40502;BME280;29631;49.168;9.848;2023-05-01T13:24:00;96433.88;;;20.05;81.93
40502;BME280;29631;49.168;9.848;2023-05-01T13:28:53;96419.94;;;20.13;81.33
40502;BME280;29631;49.168;9.848;2023-05-01T13:31:19;96433.84;;;20.25;81.69
40502;BME280;29631;49.168;9.848;2023-05-01T13:33:51;96438.66;;;20.28;81.88
40502;BME280;29631;49.168;9.848;2023-05-01T13:36:17;96427.41;;;20.26;81.39
40502;BME280;29631;49.168;9.848;2023-05-01T13:38:49;96439.72;;;20.32;81.66
40502;BME280;29631;49.168;9.848;2023-05-01T13:41:23;96439.97;;;20.35;81.73
40502;BME280;29631;49.168;9.848;2023-05-01T13:43:52;96431.69;;;20.37;81.22
40502;BME280;29631;49.168;9.848;2023-05-01T13:46:20;96422.06;;;20.31;81.11
40502;BME280;29631;49.168;9.848;2023-05-01T13:48:46;96420.41;;;20.40;81.37